Terminal Aerodrome Forecast
Issued by NWS North Platte, NE

Home | Current Version | Previous Version | Text Only | Print | Product List | Glossary On
Versions: 1 2 3 4 5 6 7 8 9 10 11 12 13 14 15 16 17 18 19 20 21
000
FTUS43 KLBF 022300
TAFVTN
TAF
KVTN 022320Z 0300/0324 17011KT P6SM SCT100
     FM030300 23006KT P6SM SCT250
     FM031600 36014G21KT P6SM SCT120 BKN200
     FM032100 03015G23KT P6SM SCT070=

USA.gov is the U.S. government's official web portal to all federal, state and local government web resources and services.